sensor_id;sensor_type;location;lat;lon;timestamp;pressure;altitude;pressure_sealevel;temperature;humidity
58622;BME280;44389;51.578;5.456;2022-07-05T00:02:20;102022.31;;;12.11;87.75
58622;BME280;44389;51.578;5.456;2022-07-05T00:04:45;102017.16;;;12.11;87.92
58622;BME280;44389;51.578;5.456;2022-07-05T00:07:11;102019.34;;;12.02;87.50
58622;BME280;44389;51.578;5.456;2022-07-05T00:09:43;102021.47;;;11.93;87.73
58622;BME280;44389;51.578;5.456;2022-07-05T00:12:09;102014.44;;;11.89;88.01
58622;BME280;44389;51.578;5.456;2022-07-05T00:14:35;102013.41;;;11.85;88.69
58622;BME280;44389;51.578;5.456;2022-07-05T00:17:02;102010.75;;;11.83;88.45
58622;BME280;44389;51.578;5.456;2022-07-05T00:19:28;102006.22;;;11.78;88.31
58622;BME280;44389;51.578;5.456;2022-07-05T00:21:53;102003.31;;;11.70;87.94
58622;BME280;44389;51.578;5.456;2022-07-05T00:24:18;102002.00;;;11.60;88.55
58622;BME280;44389;51.578;5.456;2022-07-05T00:26:43;102010.16;;;11.50;88.89
58622;BME280;44389;51.578;5.456;2022-07-05T00:29:09;102005.63;;;11.44;89.04
58622;BME280;44389;51.578;5.456;2022-07-05T00:31:34;102011.19;;;11.34;89.57
58622;BME280;44389;51.578;5.456;2022-07-05T00:33:59;102010.84;;;11.26;89.66
58622;BME280;44389;51.578;5.456;2022-07-05T00:36:24;102010.50;;;11.18;90.02
58622;BME280;44389;51.578;5.456;2022-07-05T00:38:50;102007.63;;;11.12;90.40
58622;BME280;44389;51.578;5.456;2022-07-05T00:41:15;102011.91;;;11.12;91.41
58622;BME280;44389;51.578;5.456;2022-07-05T00:43:58;102008.38;;;11.10;91.24
58622;BME280;44389;51.578;5.456;2022-07-05T00:46:25;102009.91;;;11.06;91.49
58622;BME280;44389;51.578;5.456;2022-07-05T00:48:50;102008.97;;;11.04;92.30
58622;BME280;44389;51.578;5.456;2022-07-05T00:51:16;102005.66;;;11.07;93.45
58622;BME280;44389;51.578;5.456;2022-07-05T00:53:42;102008.25;;;11.07;93.27
58622;BME280;44389;51.578;5.456;2022-07-05T00:56:11;102004.56;;;11.01;92.65
58622;BME280;44389;51.578;5.456;2022-07-05T00:58:37;102000.16;;;10.99;92.47
58622;BME280;44389;51.578;5.456;2022-07-05T01:01:04;102012.88;;;10.96;92.80
58622;BME280;44389;51.578;5.456;2022-07-05T01:03:31;102020.19;;;10.86;92.36
58622;BME280;44389;51.578;5.456;2022-07-05T01:05:58;102011.34;;;10.81;93.14
58622;BME280;44389;51.578;5.456;2022-07-05T01:08:25;102021.38;;;10.75;93.06
58622;BME280;44389;51.578;5.456;2022-07-05T01:10:52;102013.56;;;10.74;92.95
58622;BME280;44389;51.578;5.456;2022-07-05T01:13:17;102017.84;;;10.73;93.08
58622;BME280;44389;51.578;5.456;2022-07-05T01:15:43;102016.75;;;10.68;93.36
58622;BME280;44389;51.578;5.456;2022-07-05T01:18:09;102018.34;;;10.66;94.05
58622;BME280;44389;51.578;5.456;2022-07-05T01:20:35;102006.94;;;10.61;93.80
58622;BME280;44389;51.578;5.456;2022-07-05T01:23:01;102012.09;;;10.61;94.00
58622;BME280;44389;51.578;5.456;2022-07-05T01:25:30;102019.69;;;10.58;94.32
58622;BME280;44389;51.578;5.456;2022-07-05T01:27:57;102014.47;;;10.56;94.82
58622;BME280;44389;51.578;5.456;2022-07-05T01:30:23;102008.47;;;10.57;94.85
58622;BME280;44389;51.578;5.456;2022-07-05T01:32:48;102007.53;;;10.55;95.04
58622;BME280;44389;51.578;5.456;2022-07-05T01:35:15;102013.44;;;10.52;94.88
58622;BME280;44389;51.578;5.456;2022-07-05T01:37:46;102014.31;;;10.53;95.30
58622;BME280;44389;51.578;5.456;2022-07-05T01:40:12;102013.56;;;10.56;96.22
58622;BME280;44389;51.578;5.456;2022-07-05T01:42:38;102020.63;;;10.60;96.12
58622;BME280;44389;51.578;5.456;2022-07-05T01:45:04;102007.53;;;10.73;98.16
58622;BME280;44389;51.578;5.456;2022-07-05T01:47:32;102010.38;;;10.79;98.61
58622;BME280;44389;51.578;5.456;2022-07-05T01:50:02;102011.44;;;10.65;95.56
58622;BME280;44389;51.578;5.456;2022-07-05T01:52:29;102007.97;;;10.64;94.84
58622;BME280;44389;51.578;5.456;2022-07-05T01:54:58;102009.66;;;10.64;95.19
58622;BME280;44389;51.578;5.456;2022-07-05T01:57:23;102014.44;;;10.74;97.65
58622;BME280;44389;51.578;5.456;2022-07-05T01:59:49;102008.72;;;10.80;97.71
58622;BME280;44389;51.578;5.456;2022-07-05T02:02:14;102009.03;;;10.68;95.34
58622;BME280;44389;51.578;5.456;2022-07-05T02:04:40;102006.81;;;10.58;94.58
58622;BME280;44389;51.578;5.456;2022-07-05T02:07:07;102006.19;;;10.45;94.40
58622;BME280;44389;51.578;5.456;2022-07-05T02:09:33;102004.34;;;10.43;95.04
58622;BME280;44389;51.578;5.456;2022-07-05T02:11:59;101995.59;;;10.39;94.80
58622;BME280;44389;51.578;5.456;2022-07-05T02:14:25;102000.59;;;10.36;95.46
58622;BME280;44389;51.578;5.456;2022-07-05T02:16:50;101999.59;;;10.34;95.73
58622;BME280;44389;51.578;5.456;2022-07-05T02:19:15;102000.34;;;10.31;95.42
58622;BME280;44389;51.578;5.456;2022-07-05T02:21:41;102006.22;;;10.29;95.74
58622;BME280;44389;51.578;5.456;2022-07-05T02:24:07;102000.13;;;10.27;96.11
58622;BME280;44389;51.578;5.456;2022-07-05T02:26:32;101994.66;;;10.20;95.99
58622;BME280;44389;51.578;5.456;2022-07-05T02:28:58;102001.41;;;10.18;96.51
58622;BME280;44389;51.578;5.456;2022-07-05T02:31:24;101997.72;;;10.13;96.76
58622;BME280;44389;51.578;5.456;2022-07-05T02:33:49;101999.91;;;10.05;96.13
58622;BME280;44389;51.578;5.456;2022-07-05T02:36:15;102008.72;;;9.93;95.40
58622;BME280;44389;51.578;5.456;2022-07-05T02:38:41;102010.63;;;9.79;94.87
58622;BME280;44389;51.578;5.456;2022-07-05T02:41:11;102012.94;;;9.74;96.57
58622;BME280;44389;51.578;5.456;2022-07-05T02:43:37;102011.47;;;9.79;98.05
58622;BME280;44389;51.578;5.456;2022-07-05T02:46:03;102016.03;;;9.85;98.74
58622;BME280;44389;51.578;5.456;2022-07-05T02:48:29;102019.47;;;9.84;98.74
58622;BME280;44389;51.578;5.456;2022-07-05T02:50:55;102017.81;;;9.86;99.21
58622;BME280;44389;51.578;5.456;2022-07-05T02:53:20;102021.59;;;9.93;99.73
58622;BME280;44389;51.578;5.456;2022-07-05T02:55:45;102027.72;;;9.95;99.66
58622;BME280;44389;51.578;5.456;2022-07-05T02:58:11;102026.34;;;9.85;98.01
58622;BME280;44389;51.578;5.456;2022-07-05T03:00:36;102021.78;;;9.79;97.62
58622;BME280;44389;51.578;5.456;2022-07-05T03:03:01;102026.94;;;9.79;98.60
58622;BME280;44389;51.578;5.456;2022-07-05T03:05:27;102020.72;;;9.76;98.21
58622;BME280;44389;51.578;5.456;2022-07-05T03:07:52;102025.56;;;9.69;97.82
58622;BME280;44389;51.578;5.456;2022-07-05T03:10:17;102024.81;;;9.72;98.71
58622;BME280;44389;51.578;5.456;2022-07-05T03:12:43;102024.50;;;9.82;100.00
58622;BME280;44389;51.578;5.456;2022-07-05T03:15:08;102026.06;;;9.79;98.99
58622;BME280;44389;51.578;5.456;2022-07-05T03:17:34;102038.28;;;9.83;99.61
58622;BME280;44389;51.578;5.456;2022-07-05T03:19:59;102037.63;;;9.70;98.24
58622;BME280;44389;51.578;5.456;2022-07-05T03:22:24;102038.34;;;9.68;97.82
58622;BME280;44389;51.578;5.456;2022-07-05T03:24:50;102041.44;;;9.61;98.27
58622;BME280;44389;51.578;5.456;2022-07-05T03:27:15;102036.34;;;9.62;98.34
58622;BME280;44389;51.578;5.456;2022-07-05T03:29:40;102040.44;;;9.59;97.92
58622;BME280;44389;51.578;5.456;2022-07-05T03:32:06;102052.97;;;9.52;97.63
58622;BME280;44389;51.578;5.456;2022-07-05T03:34:31;102044.31;;;9.50;97.86
58622;BME280;44389;51.578;5.456;2022-07-05T03:36:56;102042.53;;;9.49;98.21
58622;BME280;44389;51.578;5.456;2022-07-05T03:39:22;102040.31;;;9.55;99.61
58622;BME280;44389;51.578;5.456;2022-07-05T03:41:47;102045.75;;;9.62;100.00
58622;BME280;44389;51.578;5.456;2022-07-05T03:44:12;102038.44;;;9.69;100.00
58622;BME280;44389;51.578;5.456;2022-07-05T03:46:37;102049.44;;;9.83;100.00
58622;BME280;44389;51.578;5.456;2022-07-05T03:49:03;102043.66;;;9.87;100.00
58622;BME280;44389;51.578;5.456;2022-07-05T03:51:28;102050.09;;;9.96;100.00
58622;BME280;44389;51.578;5.456;2022-07-05T03:53:53;102057.31;;;10.03;100.00
58622;BME280;44389;51.578;5.456;2022-07-05T03:56:19;102049.19;;;10.12;100.00
58622;BME280;44389;51.578;5.456;2022-07-05T03:58:51;102052.94;;;10.18;100.00
58622;BME280;44389;51.578;5.456;2022-07-05T04:01:17;102049.09;;;10.27;100.00
58622;BME280;44389;51.578;5.456;2022-07-05T04:03:42;102053.00;;;10.36;100.00
58622;BME280;44389;51.578;5.456;2022-07-05T04:06:09;102056.59;;;10.57;100.00
58622;BME280;44389;51.578;5.456;2022-07-05T04:08:34;102057.16;;;10.69;100.00
58622;BME280;44389;51.578;5.456;2022-07-05T04:10:59;102053.59;;;10.83;100.00
58622;BME280;44389;51.578;5.456;2022-07-05T04:13:25;102050.63;;;10.94;100.00
58622;BME280;44389;51.578;5.456;2022-07-05T04:15:50;102059.69;;;11.03;100.00
58622;BME280;44389;51.578;5.456;2022-07-05T04:18:15;102058.50;;;11.15;100.00
58622;BME280;44389;51.578;5.456;2022-07-05T04:20:41;102064.22;;;11.27;100.00
58622;BME280;44389;51.578;5.456;2022-07-05T04:23:06;102059.50;;;11.36;100.00
58622;BME280;44389;51.578;5.456;2022-07-05T04:25:31;102063.50;;;11.49;100.00
58622;BME280;44389;51.578;5.456;2022-07-05T04:27:56;102068.97;;;11.56;100.00
58622;BME280;44389;51.578;5.456;2022-07-05T04:30:24;102071.78;;;11.62;100.00
58622;BME280;44389;51.578;5.456;2022-07-05T04:32:49;102068.00;;;11.73;100.00
58622;BME280;44389;51.578;5.456;2022-07-05T04:35:15;102057.06;;;11.79;100.00
58622;BME280;44389;51.578;5.456;2022-07-05T04:37:42;102056.56;;;11.88;99.25
58622;BME280;44389;51.578;5.456;2022-07-05T04:40:09;102056.84;;;11.94;99.13
58622;BME280;44389;51.578;5.456;2022-07-05T04:42:35;102058.16;;;12.04;99.25
58622;BME280;44389;51.578;5.456;2022-07-05T04:45:00;102060.28;;;12.12;98.52
58622;BME280;44389;51.578;5.456;2022-07-05T04:47:26;102060.59;;;12.20;100.00
58622;BME280;44389;51.578;5.456;2022-07-05T04:49:52;102063.41;;;12.26;100.00
58622;BME280;44389;51.578;5.456;2022-07-05T04:52:17;102061.97;;;12.33;100.00
58622;BME280;44389;51.578;5.456;2022-07-05T04:54:43;102058.03;;;12.41;100.00
58622;BME280;44389;51.578;5.456;2022-07-05T04:57:08;102057.38;;;12.47;99.13
58622;BME280;44389;51.578;5.456;2022-07-05T04:59:33;102056.88;;;12.56;96.99
58622;BME280;44389;51.578;5.456;2022-07-05T05:01:59;102060.91;;;12.70;95.00
58622;BME280;44389;51.578;5.456;2022-07-05T05:04:24;102055.31;;;12.82;93.44
58622;BME280;44389;51.578;5.456;2022-07-05T05:06:49;102056.59;;;12.92;92.06
58622;BME280;44389;51.578;5.456;2022-07-05T05:09:15;102051.91;;;13.04;95.02
58622;BME280;44389;51.578;5.456;2022-07-05T05:11:40;102058.31;;;13.14;94.91
58622;BME280;44389;51.578;5.456;2022-07-05T05:14:05;102073.41;;;13.26;92.45
58622;BME280;44389;51.578;5.456;2022-07-05T05:16:31;102066.03;;;13.35;90.80
58622;BME280;44389;51.578;5.456;2022-07-05T05:18:56;102059.50;;;13.45;90.08
58622;BME280;44389;51.578;5.456;2022-07-05T05:21:21;102070.19;;;13.54;89.49
58622;BME280;44389;51.578;5.456;2022-07-05T05:23:47;102069.66;;;13.63;88.38
58622;BME280;44389;51.578;5.456;2022-07-05T05:26:12;102073.53;;;13.74;88.56
58622;BME280;44389;51.578;5.456;2022-07-05T05:28:37;102080.13;;;13.90;89.77
58622;BME280;44389;51.578;5.456;2022-07-05T05:31:04;102090.94;;;14.03;92.33
58622;BME280;44389;51.578;5.456;2022-07-05T05:33:29;102087.94;;;14.16;92.22
58622;BME280;44389;51.578;5.456;2022-07-05T05:35:54;102088.34;;;14.27;90.96
58622;BME280;44389;51.578;5.456;2022-07-05T05:38:20;102085.25;;;14.39;91.09
58622;BME280;44389;51.578;5.456;2022-07-05T05:40:45;102095.84;;;14.45;88.72
58622;BME280;44389;51.578;5.456;2022-07-05T05:43:11;102096.00;;;14.49;86.63
58622;BME280;44389;51.578;5.456;2022-07-05T05:45:37;102096.28;;;14.59;86.40
58622;BME280;44389;51.578;5.456;2022-07-05T05:48:02;102094.06;;;14.68;85.97
58622;BME280;44389;51.578;5.456;2022-07-05T05:50:31;102097.56;;;14.70;83.73
58622;BME280;44389;51.578;5.456;2022-07-05T05:52:57;102097.78;;;14.76;83.92
58622;BME280;44389;51.578;5.456;2022-07-05T05:55:24;102102.34;;;14.84;83.95
58622;BME280;44389;51.578;5.456;2022-07-05T05:57:50;102106.88;;;14.91;83.81
58622;BME280;44389;51.578;5.456;2022-07-05T06:00:16;102101.06;;;14.98;81.85
58622;BME280;44389;51.578;5.456;2022-07-05T06:02:42;102105.47;;;15.01;81.78
58622;BME280;44389;51.578;5.456;2022-07-05T06:05:09;102102.88;;;15.01;81.09
58622;BME280;44389;51.578;5.456;2022-07-05T06:10:15;102109.41;;;15.17;81.79
58622;BME280;44389;51.578;5.456;2022-07-05T06:12:41;102113.78;;;15.18;80.68
58622;BME280;44389;51.578;5.456;2022-07-05T06:15:06;102116.66;;;15.27;80.20
58622;BME280;44389;51.578;5.456;2022-07-05T06:17:36;102110.81;;;15.34;80.13
58622;BME280;44389;51.578;5.456;2022-07-05T06:20:05;102115.47;;;15.44;79.61
58622;BME280;44389;51.578;5.456;2022-07-05T06:22:30;102117.38;;;15.52;78.82
58622;BME280;44389;51.578;5.456;2022-07-05T06:24:56;102111.53;;;15.59;79.09
58622;BME280;44389;51.578;5.456;2022-07-05T06:27:21;102115.91;;;15.60;77.67
58622;BME280;44389;51.578;5.456;2022-07-05T06:29:46;102116.59;;;15.54;76.96
58622;BME280;44389;51.578;5.456;2022-07-05T06:32:11;102117.69;;;15.61;77.61
58622;BME280;44389;51.578;5.456;2022-07-05T06:34:37;102117.81;;;15.67;78.29
58622;BME280;44389;51.578;5.456;2022-07-05T06:37:02;102121.00;;;15.86;78.97
58622;BME280;44389;51.578;5.456;2022-07-05T06:39:27;102135.16;;;15.97;77.28
58622;BME280;44389;51.578;5.456;2022-07-05T06:41:53;102130.97;;;16.02;76.55
58622;BME280;44389;51.578;5.456;2022-07-05T06:44:19;102128.06;;;16.22;77.35
58622;BME280;44389;51.578;5.456;2022-07-05T06:46:44;102130.06;;;16.32;76.32
58622;BME280;44389;51.578;5.456;2022-07-05T06:49:09;102123.31;;;16.40;74.78
58622;BME280;44389;51.578;5.456;2022-07-05T06:51:34;102126.94;;;16.45;74.77
58622;BME280;44389;51.578;5.456;2022-07-05T06:54:00;102120.28;;;16.57;74.67
58622;BME280;44389;51.578;5.456;2022-07-05T06:56:26;102122.84;;;16.55;73.74
58622;BME280;44389;51.578;5.456;2022-07-05T06:58:52;102121.09;;;16.54;75.21
58622;BME280;44389;51.578;5.456;2022-07-05T07:01:17;102124.16;;;16.39;74.56
58622;BME280;44389;51.578;5.456;2022-07-05T07:03:42;102117.66;;;16.22;73.74
58622;BME280;44389;51.578;5.456;2022-07-05T07:06:07;102122.94;;;16.25;75.35
58622;BME280;44389;51.578;5.456;2022-07-05T07:08:33;102131.66;;;16.27;74.58
58622;BME280;44389;51.578;5.456;2022-07-05T07:11:17;102134.50;;;16.36;73.91
58622;BME280;44389;51.578;5.456;2022-07-05T07:13:43;102134.09;;;16.54;74.11
58622;BME280;44389;51.578;5.456;2022-07-05T07:16:08;102128.47;;;16.72;73.85
58622;BME280;44389;51.578;5.456;2022-07-05T07:18:34;102126.25;;;16.88;73.38
58622;BME280;44389;51.578;5.456;2022-07-05T07:21:00;102132.00;;;17.09;72.77
58622;BME280;44389;51.578;5.456;2022-07-05T07:23:26;102126.28;;;17.26;72.35
58622;BME280;44389;51.578;5.456;2022-07-05T07:25:51;102135.13;;;17.33;72.22
58622;BME280;44389;51.578;5.456;2022-07-05T07:28:16;102133.53;;;17.39;71.75
58622;BME280;44389;51.578;5.456;2022-07-05T07:30:41;102133.91;;;17.58;73.12
58622;BME280;44389;51.578;5.456;2022-07-05T07:33:07;102143.81;;;17.74;72.86
58622;BME280;44389;51.578;5.456;2022-07-05T07:35:32;102142.31;;;17.86;71.44
58622;BME280;44389;51.578;5.456;2022-07-05T07:37:58;102137.34;;;17.97;70.79
58622;BME280;44389;51.578;5.456;2022-07-05T07:40:23;102142.59;;;17.98;70.50
58622;BME280;44389;51.578;5.456;2022-07-05T07:42:48;102153.00;;;17.98;70.89
58622;BME280;44389;51.578;5.456;2022-07-05T07:45:14;102149.44;;;17.93;70.97
58622;BME280;44389;51.578;5.456;2022-07-05T07:47:39;102154.81;;;18.02;71.21
58622;BME280;44389;51.578;5.456;2022-07-05T07:50:05;102149.75;;;18.08;70.79
58622;BME280;44389;51.578;5.456;2022-07-05T07:52:31;102152.63;;;18.22;70.67
58622;BME280;44389;51.578;5.456;2022-07-05T07:54:59;102145.94;;;18.38;70.65
58622;BME280;44389;51.578;5.456;2022-07-05T07:57:24;102146.25;;;18.55;69.24
58622;BME280;44389;51.578;5.456;2022-07-05T07:59:50;102146.44;;;18.68;68.87
58622;BME280;44389;51.578;5.456;2022-07-05T08:02:15;102138.69;;;18.72;68.41
58622;BME280;44389;51.578;5.456;2022-07-05T08:04:42;102151.09;;;18.86;67.83
58622;BME280;44389;51.578;5.456;2022-07-05T08:07:07;102156.38;;;18.89;68.26
58622;BME280;44389;51.578;5.456;2022-07-05T08:09:33;102157.31;;;18.92;67.22
58622;BME280;44389;51.578;5.456;2022-07-05T08:11:58;102157.41;;;18.96;67.45
58622;BME280;44389;51.578;5.456;2022-07-05T08:14:24;102160.13;;;19.03;67.25
58622;BME280;44389;51.578;5.456;2022-07-05T08:16:49;102158.50;;;19.13;67.05
58622;BME280;44389;51.578;5.456;2022-07-05T08:19:15;102155.88;;;19.12;66.82
58622;BME280;44389;51.578;5.456;2022-07-05T08:21:59;102164.69;;;19.18;67.22
58622;BME280;44389;51.578;5.456;2022-07-05T08:24:25;102163.13;;;19.30;67.09
58622;BME280;44389;51.578;5.456;2022-07-05T08:26:50;102157.34;;;19.54;67.29
58622;BME280;44389;51.578;5.456;2022-07-05T08:29:15;102167.13;;;19.69;66.21
58622;BME280;44389;51.578;5.456;2022-07-05T08:31:45;102157.69;;;19.80;65.83
58622;BME280;44389;51.578;5.456;2022-07-05T08:34:10;102165.53;;;19.80;65.35
58622;BME280;44389;51.578;5.456;2022-07-05T08:36:37;102169.81;;;19.73;65.69
58622;BME280;44389;51.578;5.456;2022-07-05T08:39:03;102157.47;;;19.65;65.39
58622;BME280;44389;51.578;5.456;2022-07-05T08:41:29;102160.13;;;19.66;66.94
58622;BME280;44389;51.578;5.456;2022-07-05T08:43:56;102158.50;;;19.74;67.11
58622;BME280;44389;51.578;5.456;2022-07-05T08:46:23;102162.91;;;19.79;66.38
58622;BME280;44389;51.578;5.456;2022-07-05T08:48:50;102153.50;;;19.92;66.40
58622;BME280;44389;51.578;5.456;2022-07-05T08:51:21;102151.69;;;19.86;66.60
58622;BME280;44389;51.578;5.456;2022-07-05T08:53:48;102152.66;;;19.97;67.65
58622;BME280;44389;51.578;5.456;2022-07-05T08:56:14;102147.56;;;20.08;65.19
58622;BME280;44389;51.578;5.456;2022-07-05T08:58:40;102147.81;;;20.31;65.81
58622;BME280;44389;51.578;5.456;2022-07-05T09:01:06;102153.00;;;20.28;62.83
58622;BME280;44389;51.578;5.456;2022-07-05T09:03:34;102147.69;;;20.19;62.64
58622;BME280;44389;51.578;5.456;2022-07-05T09:06:02;102150.44;;;20.33;63.36
58622;BME280;44389;51.578;5.456;2022-07-05T09:08:30;102155.03;;;20.57;63.01
58622;BME280;44389;51.578;5.456;2022-07-05T09:11:00;102155.00;;;20.54;61.01
58622;BME280;44389;51.578;5.456;2022-07-05T09:13:26;102153.03;;;20.30;60.74
58622;BME280;44389;51.578;5.456;2022-07-05T09:15:51;102158.22;;;20.25;61.53
58622;BME280;44389;51.578;5.456;2022-07-05T09:21:18;102154.91;;;20.42;60.43
58622;BME280;44389;51.578;5.456;2022-07-05T09:23:44;102153.41;;;20.68;59.99
58622;BME280;44389;51.578;5.456;2022-07-05T09:26:10;102161.44;;;20.88;58.66
58622;BME280;44389;51.578;5.456;2022-07-05T09:28:36;102154.63;;;21.15;58.20
58622;BME280;44389;51.578;5.456;2022-07-05T09:31:01;102152.97;;;21.33;57.56
58622;BME280;44389;51.578;5.456;2022-07-05T09:33:26;102166.22;;;21.53;55.76
58622;BME280;44389;51.578;5.456;2022-07-05T09:35:56;102157.44;;;21.48;55.28
58622;BME280;44389;51.578;5.456;2022-07-05T09:38:25;102156.44;;;21.29;55.64
58622;BME280;44389;51.578;5.456;2022-07-05T09:40:54;102159.13;;;21.36;56.08
58622;BME280;44389;51.578;5.456;2022-07-05T09:43:22;102159.19;;;21.49;54.80
58622;BME280;44389;51.578;5.456;2022-07-05T09:46:00;102157.63;;;21.76;54.99
58622;BME280;44389;51.578;5.456;2022-07-05T09:48:27;102154.03;;;21.60;51.66
58622;BME280;44389;51.578;5.456;2022-07-05T09:51:04;102156.56;;;21.50;54.63
58622;BME280;44389;51.578;5.456;2022-07-05T09:53:49;102158.28;;;21.44;56.57
58622;BME280;44389;51.578;5.456;2022-07-05T09:56:16;102153.78;;;21.21;56.74
58622;BME280;44389;51.578;5.456;2022-07-05T09:58:42;102152.75;;;20.94;55.87
58622;BME280;44389;51.578;5.456;2022-07-05T10:01:30;102160.47;;;20.76;58.07
58622;BME280;44389;51.578;5.456;2022-07-05T10:03:59;102156.75;;;20.55;58.29
58622;BME280;44389;51.578;5.456;2022-07-05T10:06:26;102149.75;;;20.51;55.67
58622;BME280;44389;51.578;5.456;2022-07-05T10:08:53;102155.13;;;20.66;55.17
58622;BME280;44389;51.578;5.456;2022-07-05T10:11:19;102160.38;;;20.69;54.63
58622;BME280;44389;51.578;5.456;2022-07-05T10:13:49;102162.97;;;20.69;52.97
58622;BME280;44389;51.578;5.456;2022-07-05T10:16:20;102153.44;;;20.71;55.56
58622;BME280;44389;51.578;5.456;2022-07-05T10:18:46;102151.56;;;20.61;54.86
58622;BME280;44389;51.578;5.456;2022-07-05T10:21:15;102164.59;;;20.55;55.70
58622;BME280;44389;51.578;5.456;2022-07-05T10:23:43;102162.84;;;20.52;55.05
58622;BME280;44389;51.578;5.456;2022-07-05T10:26:11;102159.59;;;20.77;53.71
58622;BME280;44389;51.578;5.456;2022-07-05T10:28:45;102159.72;;;20.92;53.41
58622;BME280;44389;51.578;5.456;2022-07-05T10:31:12;102150.28;;;21.19;53.71
58622;BME280;44389;51.578;5.456;2022-07-05T10:33:38;102160.06;;;21.51;52.14
58622;BME280;44389;51.578;5.456;2022-07-05T10:36:04;102157.75;;;22.31;50.47
58622;BME280;44389;51.578;5.456;2022-07-05T10:38:35;102159.47;;;23.50;49.59
58622;BME280;44389;51.578;5.456;2022-07-05T10:41:03;102154.75;;;24.20;46.21
58622;BME280;44389;51.578;5.456;2022-07-05T10:43:29;102153.94;;;24.12;45.46
58622;BME280;44389;51.578;5.456;2022-07-05T10:45:55;102152.28;;;23.83;46.31
58622;BME280;44389;51.578;5.456;2022-07-05T10:48:25;102149.38;;;24.34;44.84
58622;BME280;44389;51.578;5.456;2022-07-05T10:50:54;102147.81;;;25.15;42.38
58622;BME280;44389;51.578;5.456;2022-07-05T10:53:22;102148.63;;;25.92;40.46
58622;BME280;44389;51.578;5.456;2022-07-05T10:56:10;102141.16;;;27.25;40.07
58622;BME280;44389;51.578;5.456;2022-07-05T11:03:38;102158.44;;;25.84;38.16
58622;BME280;44389;51.578;5.456;2022-07-05T11:06:07;102151.75;;;24.70;36.10
58622;BME280;44389;51.578;5.456;2022-07-05T11:11:27;102163.03;;;23.09;41.09
58622;BME280;44389;51.578;5.456;2022-07-05T11:13:53;102156.91;;;22.39;43.15
58622;BME280;44389;51.578;5.456;2022-07-05T11:16:24;102171.66;;;22.02;44.49
58622;BME280;44389;51.578;5.456;2022-07-05T11:18:51;102161.06;;;21.71;45.30
58622;BME280;44389;51.578;5.456;2022-07-05T11:21:18;102166.28;;;21.58;48.30
58622;BME280;44389;51.578;5.456;2022-07-05T11:23:45;102161.78;;;21.46;48.18
58622;BME280;44389;51.578;5.456;2022-07-05T11:26:12;102158.22;;;21.30;48.83
58622;BME280;44389;51.578;5.456;2022-07-05T11:28:42;102157.34;;;21.29;49.42
58622;BME280;44389;51.578;5.456;2022-07-05T11:31:08;102157.44;;;21.51;50.76
58622;BME280;44389;51.578;5.456;2022-07-05T11:33:39;102156.06;;;22.67;48.71
58622;BME280;44389;51.578;5.456;2022-07-05T11:36:20;102147.34;;;24.73;45.19
58622;BME280;44389;51.578;5.456;2022-07-05T11:39:12;102149.03;;;26.28;42.79
58622;BME280;44389;51.578;5.456;2022-07-05T11:41:38;102149.84;;;26.32;38.80
58622;BME280;44389;51.578;5.456;2022-07-05T11:44:06;102154.09;;;26.42;38.88
58622;BME280;44389;51.578;5.456;2022-07-05T11:46:35;102149.28;;;27.62;35.21
58622;BME280;44389;51.578;5.456;2022-07-05T11:49:00;102146.28;;;28.19;34.01
58622;BME280;44389;51.578;5.456;2022-07-05T11:51:26;102140.25;;;29.16;32.78
58622;BME280;44389;51.578;5.456;2022-07-05T11:53:51;102143.44;;;28.98;31.62
58622;BME280;44389;51.578;5.456;2022-07-05T11:56:17;102143.41;;;29.62;33.39
58622;BME280;44389;51.578;5.456;2022-07-05T11:58:42;102135.28;;;29.67;32.93
58622;BME280;44389;51.578;5.456;2022-07-05T12:01:08;102142.03;;;30.34;31.41
58622;BME280;44389;51.578;5.456;2022-07-05T12:03:33;102142.22;;;31.08;29.94
58622;BME280;44389;51.578;5.456;2022-07-05T12:06:10;102146.50;;;31.83;31.79
58622;BME280;44389;51.578;5.456;2022-07-05T12:08:35;102146.09;;;30.47;28.98
58622;BME280;44389;51.578;5.456;2022-07-05T12:11:02;102134.44;;;28.69;32.17
58622;BME280;44389;51.578;5.456;2022-07-05T12:13:49;102139.22;;;27.79;35.95
58622;BME280;44389;51.578;5.456;2022-07-05T12:16:15;102133.94;;;26.90;35.16
58622;BME280;44389;51.578;5.456;2022-07-05T12:18:51;102138.31;;;26.36;37.75
58622;BME280;44389;51.578;5.456;2022-07-05T12:21:17;102128.75;;;25.67;37.54
58622;BME280;44389;51.578;5.456;2022-07-05T12:23:46;102133.00;;;25.77;36.12
58622;BME280;44389;51.578;5.456;2022-07-05T12:26:12;102133.81;;;25.82;34.89
58622;BME280;44389;51.578;5.456;2022-07-05T12:28:39;102143.13;;;26.12;36.01
58622;BME280;44389;51.578;5.456;2022-07-05T12:33:40;102136.56;;;25.76;37.83
58622;BME280;44389;51.578;5.456;2022-07-05T12:36:10;102134.69;;;25.84;36.72
58622;BME280;44389;51.578;5.456;2022-07-05T12:38:36;102133.72;;;25.91;36.89
58622;BME280;44389;51.578;5.456;2022-07-05T12:41:01;102136.97;;;26.10;36.23
58622;BME280;44389;51.578;5.456;2022-07-05T12:43:27;102130.63;;;25.58;35.83
58622;BME280;44389;51.578;5.456;2022-07-05T12:46:03;102132.41;;;24.75;37.41
58622;BME280;44389;51.578;5.456;2022-07-05T12:48:33;102130.97;;;24.29;38.35
58622;BME280;44389;51.578;5.456;2022-07-05T12:50:58;102131.50;;;24.78;37.20
58622;BME280;44389;51.578;5.456;2022-07-05T12:53:24;102133.41;;;25.46;37.79
58622;BME280;44389;51.578;5.456;2022-07-05T12:56:10;102131.69;;;25.42;36.65
58622;BME280;44389;51.578;5.456;2022-07-05T12:58:56;102131.16;;;25.10;38.65
58622;BME280;44389;51.578;5.456;2022-07-05T13:01:26;102122.91;;;24.49;37.82
58622;BME280;44389;51.578;5.456;2022-07-05T13:04:00;102126.91;;;24.98;39.99
58622;BME280;44389;51.578;5.456;2022-07-05T13:06:52;102137.28;;;25.11;39.28